Terminal Aerodrome Forecast
Issued by NWS

Home | Current Version | Previous Version | Text Only | Print | Product List | Glossary On
Versions: 1 2 3 4 5 6 7 8 9 10 11 12 13 14 15 16 17 18 19 20 21
000
FTPA31 PHFO 230500
TAFLIH
TAF
PHLI 230540Z 2306/2406 29005KT P6SM SCT025 SCT040
     FM232000 13007KT P6SM FEW025 SCT040
     FM240200 23006KT P6SM SCT025 SCT040=

USA.gov is the U.S. government's official web portal to all federal, state and local government web resources and services.